createdAt,value
2022-09-16T00:00:10.000Z,97946
2022-09-16T00:02:16.000Z,97948
2022-09-16T00:03:42.000Z,97950
2022-09-16T00:05:48.000Z,97949
2022-09-16T00:07:15.000Z,97952
2022-09-16T00:09:21.000Z,97950
2022-09-16T00:10:48.000Z,97951
2022-09-16T00:12:54.000Z,97948
2022-09-16T00:14:20.000Z,97949
2022-09-16T00:16:26.000Z,97950
2022-09-16T00:19:18.000Z,97955
2022-09-16T00:20:44.000Z,97951
2022-09-16T00:22:50.000Z,97954
2022-09-16T00:24:17.000Z,97951
2022-09-16T00:26:23.000Z,97952
2022-09-16T00:27:49.000Z,97949
2022-09-16T00:29:55.000Z,97948
2022-09-16T00:31:22.000Z,97948
2022-09-16T00:33:28.000Z,97943
2022-09-16T00:34:55.000Z,97944
2022-09-16T00:37:01.000Z,97942
2022-09-16T00:38:27.000Z,97945
2022-09-16T00:40:33.000Z,97944
2022-09-16T00:42:00.000Z,97948
2022-09-16T00:44:06.000Z,97951
2022-09-16T00:45:33.000Z,97949
2022-09-16T00:47:39.000Z,97949
2022-09-16T00:49:05.000Z,97945
2022-09-16T00:51:11.000Z,97950
2022-09-16T00:52:38.000Z,97950
2022-09-16T00:54:44.000Z,97951
2022-09-16T00:57:35.000Z,97955
2022-09-16T00:59:02.000Z,97953
2022-09-16T01:01:08.000Z,97948
2022-09-16T01:02:34.000Z,97947
2022-09-16T01:04:41.000Z,97951
2022-09-16T01:06:07.000Z,97949
2022-09-16T01:08:13.000Z,97946
2022-09-16T01:09:40.000Z,97942
2022-09-16T01:11:46.000Z,97942
2022-09-16T01:13:12.000Z,97945
2022-09-16T01:15:18.000Z,97940
2022-09-16T01:16:45.000Z,97942
2022-09-16T01:18:51.000Z,97941
2022-09-16T01:20:18.000Z,97944
2022-09-16T01:22:24.000Z,97942
2022-09-16T01:23:50.000Z,97941
2022-09-16T01:25:56.000Z,97941
2022-09-16T01:27:23.000Z,97938
2022-09-16T01:29:29.000Z,97936
2022-09-16T01:30:55.000Z,97937
2022-09-16T01:33:02.000Z,97938
2022-09-16T01:35:53.000Z,97943
2022-09-16T01:37:20.000Z,97940
2022-09-16T01:39:26.000Z,97941
2022-09-16T01:40:52.000Z,97940
2022-09-16T01:42:58.000Z,97944
2022-09-16T01:44:25.000Z,97947
2022-09-16T01:46:31.000Z,97946
2022-09-16T01:47:57.000Z,97945
2022-09-16T01:50:03.000Z,97943
2022-09-16T01:51:30.000Z,97939
2022-09-16T01:53:36.000Z,97940
2022-09-16T01:55:03.000Z,97938
2022-09-16T01:57:09.000Z,97943
2022-09-16T01:58:35.000Z,97942
2022-09-16T02:00:41.000Z,97937
2022-09-16T02:02:08.000Z,97931
2022-09-16T02:04:14.000Z,97929
2022-09-16T02:05:41.000Z,97928
2022-09-16T02:07:47.000Z,97925
2022-09-16T02:09:13.000Z,97929
2022-09-16T02:11:19.000Z,97934
2022-09-16T02:14:10.000Z,97932
2022-09-16T02:15:37.000Z,97928
2022-09-16T02:17:43.000Z,97934
2022-09-16T02:19:09.000Z,97931
2022-09-16T02:21:16.000Z,97927
2022-09-16T02:22:42.000Z,97929
2022-09-16T02:24:48.000Z,97926
2022-09-16T02:26:15.000Z,97927
2022-09-16T02:28:21.000Z,97920
2022-09-16T02:29:47.000Z,97925
2022-09-16T02:31:53.000Z,97927
2022-09-16T02:33:22.000Z,97935
2022-09-16T02:35:28.000Z,97931
2022-09-16T02:36:54.000Z,97923
2022-09-16T02:39:01.000Z,97921
2022-09-16T02:40:27.000Z,97922
2022-09-16T02:42:33.000Z,97927
2022-09-16T02:44:00.000Z,97926
2022-09-16T02:46:06.000Z,97922
2022-09-16T02:47:32.000Z,97925
2022-09-16T02:49:39.000Z,97923
2022-09-16T02:52:30.000Z,97927
2022-09-16T02:53:56.000Z,97923
2022-09-16T02:56:02.000Z,97930
2022-09-16T02:57:29.000Z,97927
2022-09-16T02:59:35.000Z,97926
2022-09-16T03:01:01.000Z,97933
2022-09-16T03:03:07.000Z,97929
2022-09-16T03:04:34.000Z,97930
2022-09-16T03:06:40.000Z,97928
2022-09-16T03:08:07.000Z,97928
2022-09-16T03:10:13.000Z,97925
2022-09-16T03:11:39.000Z,97929
2022-09-16T03:13:45.000Z,97928
2022-09-16T03:15:12.000Z,97926
2022-09-16T03:17:18.000Z,97929
2022-09-16T03:18:44.000Z,97927
2022-09-16T03:20:50.000Z,97932
2022-09-16T03:22:17.000Z,97932
2022-09-16T03:24:23.000Z,97932
2022-09-16T03:25:50.000Z,97931
2022-09-16T03:27:56.000Z,97925
2022-09-16T03:30:47.000Z,97926
2022-09-16T03:32:13.000Z,97927
2022-09-16T03:34:19.000Z,97925
2022-09-16T03:35:46.000Z,97924
2022-09-16T03:37:52.000Z,97914
2022-09-16T03:39:18.000Z,97913
2022-09-16T03:41:25.000Z,97921
2022-09-16T03:42:51.000Z,97920
2022-09-16T03:44:57.000Z,97925
2022-09-16T03:46:24.000Z,97923
2022-09-16T03:48:30.000Z,97923
2022-09-16T03:49:57.000Z,97923
2022-09-16T03:52:03.000Z,97919
2022-09-16T03:53:29.000Z,97913
2022-09-16T03:55:35.000Z,97909
2022-09-16T03:57:02.000Z,97919
2022-09-16T03:59:08.000Z,97916
2022-09-16T04:00:34.000Z,97914
2022-09-16T04:02:40.000Z,97910
2022-09-16T04:04:07.000Z,97911
2022-09-16T04:06:13.000Z,97916
2022-09-16T04:09:04.000Z,97915
2022-09-16T04:10:31.000Z,97919
2022-09-16T04:12:37.000Z,97915
2022-09-16T04:14:03.000Z,97912
2022-09-16T04:16:10.000Z,97914
2022-09-16T04:17:36.000Z,97909
2022-09-16T04:19:42.000Z,97904
2022-09-16T04:21:09.000Z,97907
2022-09-16T04:23:15.000Z,97907
2022-09-16T04:24:41.000Z,97906
2022-09-16T04:26:47.000Z,97902
2022-09-16T04:28:14.000Z,97905
2022-09-16T04:30:20.000Z,97908
2022-09-16T04:31:46.000Z,97909
2022-09-16T04:33:52.000Z,97906
2022-09-16T04:35:19.000Z,97910
2022-09-16T04:37:25.000Z,97909
2022-09-16T04:38:52.000Z,97908
2022-09-16T04:40:58.000Z,97907
2022-09-16T04:42:24.000Z,97911
2022-09-16T04:44:30.000Z,97914
2022-09-16T04:47:21.000Z,97920
2022-09-16T04:48:48.000Z,97921
2022-09-16T04:50:54.000Z,97922
2022-09-16T04:52:20.000Z,97921
2022-09-16T04:54:27.000Z,97923
2022-09-16T04:55:53.000Z,97925
2022-09-16T04:57:59.000Z,97923
2022-09-16T04:59:26.000Z,97924
2022-09-16T05:01:32.000Z,97921
2022-09-16T05:02:59.000Z,97924
2022-09-16T05:05:05.000Z,97920
2022-09-16T05:06:31.000Z,97921
2022-09-16T05:08:37.000Z,97925
2022-09-16T05:10:04.000Z,97926
2022-09-16T05:12:10.000Z,97922
2022-09-16T05:13:37.000Z,97919
2022-09-16T05:15:43.000Z,97913
2022-09-16T05:17:16.000Z,97919
2022-09-16T05:19:52.000Z,97918
2022-09-16T05:21:19.000Z,97919
2022-09-16T05:23:25.000Z,97919
2022-09-16T05:26:16.000Z,97916
2022-09-16T05:27:43.000Z,97921
2022-09-16T05:29:49.000Z,97918
2022-09-16T05:31:16.000Z,97916
2022-09-16T05:33:22.000Z,97920
2022-09-16T05:34:48.000Z,97922
2022-09-16T05:36:55.000Z,97920
2022-09-16T05:38:21.000Z,97921
2022-09-16T05:40:27.000Z,97922
2022-09-16T05:41:54.000Z,97918
2022-09-16T05:44:00.000Z,97919
2022-09-16T05:45:26.000Z,97923
2022-09-16T05:47:38.000Z,97918
2022-09-16T05:49:04.000Z,97918
2022-09-16T05:51:11.000Z,97921
2022-09-16T05:52:37.000Z,97919
2022-09-16T05:54:43.000Z,97922
2022-09-16T05:56:10.000Z,97923
2022-09-16T05:58:16.000Z,97924
2022-09-16T05:59:42.000Z,97923
2022-09-16T06:01:49.000Z,97927
2022-09-16T06:04:40.000Z,97928
2022-09-16T06:06:06.000Z,97925
2022-09-16T06:08:13.000Z,97923
2022-09-16T06:09:39.000Z,97925
2022-09-16T06:11:45.000Z,97921
2022-09-16T06:13:12.000Z,97922
2022-09-16T06:15:18.000Z,97926
2022-09-16T06:16:44.000Z,97927
2022-09-16T06:18:50.000Z,97925
2022-09-16T06:20:17.000Z,97920
2022-09-16T06:22:23.000Z,97915
2022-09-16T06:23:49.000Z,97914
2022-09-16T06:25:56.000Z,97910
2022-09-16T06:27:22.000Z,97910
2022-09-16T06:29:28.000Z,97915
2022-09-16T06:30:55.000Z,97917
2022-09-16T06:33:01.000Z,97912
2022-09-16T06:34:28.000Z,97916
2022-09-16T06:36:34.000Z,97911
2022-09-16T06:38:00.000Z,97905
2022-09-16T06:40:06.000Z,97907
2022-09-16T06:42:58.000Z,97907
2022-09-16T06:44:26.000Z,97901
2022-09-16T06:46:32.000Z,97901
2022-09-16T06:47:59.000Z,97905
2022-09-16T06:50:05.000Z,97903
2022-09-16T06:51:31.000Z,97908
2022-09-16T06:53:37.000Z,97907
2022-09-16T06:55:04.000Z,97908
2022-09-16T06:57:10.000Z,97909
2022-09-16T06:58:38.000Z,97902
2022-09-16T07:00:44.000Z,97905
2022-09-16T07:02:11.000Z,97898
2022-09-16T07:04:17.000Z,97904
2022-09-16T07:05:44.000Z,97899
2022-09-16T07:07:50.000Z,97902
2022-09-16T07:09:16.000Z,97905
2022-09-16T07:11:22.000Z,97905
2022-09-16T07:12:49.000Z,97904
2022-09-16T07:14:55.000Z,97903
2022-09-16T07:16:21.000Z,97904
2022-09-16T07:18:28.000Z,97902
2022-09-16T07:21:19.000Z,97908
2022-09-16T07:22:45.000Z,97910
2022-09-16T07:24:51.000Z,97911
2022-09-16T07:26:18.000Z,97907
2022-09-16T07:28:24.000Z,97911
2022-09-16T07:29:50.000Z,97913
2022-09-16T07:31:56.000Z,97910
2022-09-16T07:33:23.000Z,97910
2022-09-16T07:35:29.000Z,97914
2022-09-16T07:36:56.000Z,97911
2022-09-16T07:39:02.000Z,97909
2022-09-16T07:40:28.000Z,97911
2022-09-16T07:42:35.000Z,97914
2022-09-16T07:44:02.000Z,97909
2022-09-16T07:46:08.000Z,97914
2022-09-16T07:47:35.000Z,97909
2022-09-16T07:49:41.000Z,97913
2022-09-16T07:51:07.000Z,97918
2022-09-16T07:53:13.000Z,97913
2022-09-16T07:54:40.000Z,97912
2022-09-16T07:56:46.000Z,97917
2022-09-16T07:59:37.000Z,97916
2022-09-16T08:01:03.000Z,97916
2022-09-16T08:03:11.000Z,97915
2022-09-16T08:04:37.000Z,97915
2022-09-16T08:06:44.000Z,97914
2022-09-16T08:08:10.000Z,97920
2022-09-16T08:10:16.000Z,97922
2022-09-16T08:11:43.000Z,97922
2022-09-16T08:13:49.000Z,97925
2022-09-16T08:15:15.000Z,97925
2022-09-16T08:17:21.000Z,97921
2022-09-16T08:18:48.000Z,97920
2022-09-16T08:20:54.000Z,97925
2022-09-16T08:22:21.000Z,97928
2022-09-16T08:24:27.000Z,97939
2022-09-16T08:25:53.000Z,97939
2022-09-16T08:27:59.000Z,97940
2022-09-16T08:29:26.000Z,97938
2022-09-16T08:31:32.000Z,97939
2022-09-16T08:32:58.000Z,97935
2022-09-16T08:35:04.000Z,97938
2022-09-16T08:37:56.000Z,97942
2022-09-16T08:39:22.000Z,97940
2022-09-16T08:41:28.000Z,97939
2022-09-16T08:42:55.000Z,97944
2022-09-16T08:45:01.000Z,97942
2022-09-16T08:46:27.000Z,97944
2022-09-16T08:48:33.000Z,97943
2022-09-16T08:50:00.000Z,97947
2022-09-16T08:52:06.000Z,97948
2022-09-16T08:53:32.000Z,97949
2022-09-16T08:55:38.000Z,97944
2022-09-16T08:57:05.000Z,97947
2022-09-16T08:59:11.000Z,97943
2022-09-16T09:00:38.000Z,97947
2022-09-16T09:02:44.000Z,97937
2022-09-16T09:04:11.000Z,97936
2022-09-16T09:06:17.000Z,97940
2022-09-16T09:07:43.000Z,97934
2022-09-16T09:09:50.000Z,97933
2022-09-16T09:11:16.000Z,97932
2022-09-16T09:13:22.000Z,97929
2022-09-16T09:16:14.000Z,97936
2022-09-16T09:17:40.000Z,97936
2022-09-16T09:19:54.000Z,97934
2022-09-16T09:21:20.000Z,97937
2022-09-16T09:23:26.000Z,97934
2022-09-16T09:24:53.000Z,97927
2022-09-16T09:27:02.000Z,97933
2022-09-16T09:28:29.000Z,97928
2022-09-16T09:30:35.000Z,97932
2022-09-16T09:32:01.000Z,97931
2022-09-16T09:34:08.000Z,97926
2022-09-16T09:35:34.000Z,97930
2022-09-16T09:37:40.000Z,97917
2022-09-16T09:39:07.000Z,97918
2022-09-16T09:41:13.000Z,97913
2022-09-16T09:42:39.000Z,97907
2022-09-16T09:44:45.000Z,97913
2022-09-16T09:46:12.000Z,97907
2022-09-16T09:48:18.000Z,97899
2022-09-16T09:49:45.000Z,97897
2022-09-16T09:51:51.000Z,97898
2022-09-16T09:54:42.000Z,97898
2022-09-16T09:56:08.000Z,97896
2022-09-16T09:58:14.000Z,97889
2022-09-16T09:59:41.000Z,97888
2022-09-16T10:01:47.000Z,97894
2022-09-16T10:03:14.000Z,97896
2022-09-16T10:05:20.000Z,97893
2022-09-16T10:06:46.000Z,97888
2022-09-16T10:08:53.000Z,97895
2022-09-16T10:10:19.000Z,97891
2022-09-16T10:12:25.000Z,97886
2022-09-16T10:13:52.000Z,97882
2022-09-16T10:15:58.000Z,97883
2022-09-16T10:17:25.000Z,97888
2022-09-16T10:19:31.000Z,97889
2022-09-16T10:20:57.000Z,97893
2022-09-16T10:23:03.000Z,97888
2022-09-16T10:24:30.000Z,97887
2022-09-16T10:26:36.000Z,97884
2022-09-16T10:28:03.000Z,97871
2022-09-16T10:30:09.000Z,97873
2022-09-16T10:33:00.000Z,97876
2022-09-16T10:34:27.000Z,97877
2022-09-16T10:36:33.000Z,97873
2022-09-16T10:37:59.000Z,97873
2022-09-16T10:40:05.000Z,97876
2022-09-16T10:41:32.000Z,97886
2022-09-16T10:43:38.000Z,97875
2022-09-16T10:45:04.000Z,97883
2022-09-16T10:47:11.000Z,97878
2022-09-16T10:48:37.000Z,97882
2022-09-16T10:50:43.000Z,97882
2022-09-16T10:52:10.000Z,97879
2022-09-16T10:54:16.000Z,97886
2022-09-16T10:55:42.000Z,97888
2022-09-16T10:57:49.000Z,97894
2022-09-16T10:59:15.000Z,97892
2022-09-16T11:01:21.000Z,97892
2022-09-16T11:02:49.000Z,97891
2022-09-16T11:04:55.000Z,97892
2022-09-16T11:06:22.000Z,97891
2022-09-16T11:08:28.000Z,97891
2022-09-16T11:11:19.000Z,97889
2022-09-16T11:12:45.000Z,97888
2022-09-16T11:14:52.000Z,97889
2022-09-16T11:16:18.000Z,97891
2022-09-16T11:18:24.000Z,97888
2022-09-16T11:19:51.000Z,97888
2022-09-16T11:21:57.000Z,97892
2022-09-16T11:23:23.000Z,97889
2022-09-16T11:25:29.000Z,97883
2022-09-16T11:26:56.000Z,97886
2022-09-16T11:29:02.000Z,97883
2022-09-16T11:30:29.000Z,97880
2022-09-16T11:32:35.000Z,97880
2022-09-16T11:34:02.000Z,97880
2022-09-16T11:36:08.000Z,97883
2022-09-16T11:37:34.000Z,97878
2022-09-16T11:39:40.000Z,97880
2022-09-16T11:41:07.000Z,97871
2022-09-16T11:43:13.000Z,97873
2022-09-16T11:44:40.000Z,97873
2022-09-16T11:46:46.000Z,97874
2022-09-16T11:49:37.000Z,97877
2022-09-16T11:51:04.000Z,97879
2022-09-16T11:53:10.000Z,97878
2022-09-16T11:54:38.000Z,97879
2022-09-16T11:56:44.000Z,97879
2022-09-16T11:58:10.000Z,97880
2022-09-16T12:00:16.000Z,97875
2022-09-16T12:01:43.000Z,97874
2022-09-16T12:03:49.000Z,97870
2022-09-16T12:05:16.000Z,97864
2022-09-16T12:08:48.000Z,97864
2022-09-16T12:10:54.000Z,97868
2022-09-16T12:12:21.000Z,97870
2022-09-16T12:14:27.000Z,97867
2022-09-16T12:15:54.000Z,97866
2022-09-16T12:18:00.000Z,97861
2022-09-16T12:19:26.000Z,97868
2022-09-16T12:21:32.000Z,97864
2022-09-16T12:22:59.000Z,97862
2022-09-16T12:25:05.000Z,97863
2022-09-16T12:27:56.000Z,97865
2022-09-16T12:29:22.000Z,97861
2022-09-16T12:31:29.000Z,97859
2022-09-16T12:32:55.000Z,97858
2022-09-16T12:35:01.000Z,97864
2022-09-16T12:36:28.000Z,97867
2022-09-16T12:38:34.000Z,97869
2022-09-16T12:40:00.000Z,97868
2022-09-16T12:42:07.000Z,97867
2022-09-16T12:43:33.000Z,97868
2022-09-16T12:45:39.000Z,97865
2022-09-16T12:47:06.000Z,97867
2022-09-16T12:49:12.000Z,97861
2022-09-16T12:50:38.000Z,97861
2022-09-16T12:52:45.000Z,97861
2022-09-16T12:54:11.000Z,97854
2022-09-16T12:56:17.000Z,97859
2022-09-16T12:57:44.000Z,97853
2022-09-16T12:59:50.000Z,97849
2022-09-16T13:01:16.000Z,97852
2022-09-16T13:03:23.000Z,97850
2022-09-16T13:06:14.000Z,97845
2022-09-16T13:07:40.000Z,97847
2022-09-16T13:09:46.000Z,97852
2022-09-16T13:11:13.000Z,97853
2022-09-16T13:14:22.000Z,97854
2022-09-16T13:15:48.000Z,97850
2022-09-16T13:17:55.000Z,97852
2022-09-16T13:19:21.000Z,97846
2022-09-16T13:21:27.000Z,97844
2022-09-16T13:22:54.000Z,97841
2022-09-16T13:25:00.000Z,97845
2022-09-16T13:26:33.000Z,97848
2022-09-16T13:28:39.000Z,97843
2022-09-16T13:30:05.000Z,97845
2022-09-16T13:32:11.000Z,97840
2022-09-16T13:33:38.000Z,97838
2022-09-16T13:35:44.000Z,97841
2022-09-16T13:37:11.000Z,97844
2022-09-16T13:39:17.000Z,97840
2022-09-16T13:40:43.000Z,97842
2022-09-16T13:42:49.000Z,97840
2022-09-16T13:45:41.000Z,97859
2022-09-16T13:47:07.000Z,97868
2022-09-16T13:49:13.000Z,97874
2022-09-16T13:50:40.000Z,97868
2022-09-16T13:52:46.000Z,97862
2022-09-16T13:54:13.000Z,97863
2022-09-16T13:56:19.000Z,97872
2022-09-16T13:57:45.000Z,97874
2022-09-16T13:59:52.000Z,97871
2022-09-16T14:01:18.000Z,97867
2022-09-16T14:03:24.000Z,97871
2022-09-16T14:04:51.000Z,97869
2022-09-16T14:06:57.000Z,97870
2022-09-16T14:08:24.000Z,97868
2022-09-16T14:10:30.000Z,97863
2022-09-16T14:11:56.000Z,97858
2022-09-16T14:14:02.000Z,97857
2022-09-16T14:15:33.000Z,97850
2022-09-16T14:17:39.000Z,97849
2022-09-16T14:19:05.000Z,97846
2022-09-16T14:21:12.000Z,97851
2022-09-16T14:24:03.000Z,97851
2022-09-16T14:25:29.000Z,97853
2022-09-16T14:27:36.000Z,97854
2022-09-16T14:29:02.000Z,97857
2022-09-16T14:31:08.000Z,97863
2022-09-16T14:32:35.000Z,97858
2022-09-16T14:34:41.000Z,97861
2022-09-16T14:36:07.000Z,97865
2022-09-16T14:38:14.000Z,97873
2022-09-16T14:40:07.000Z,97869
2022-09-16T14:42:14.000Z,97865
2022-09-16T14:43:40.000Z,97868
2022-09-16T14:45:46.000Z,97862
2022-09-16T14:47:13.000Z,97861
2022-09-16T14:49:35.000Z,97869
2022-09-16T14:51:02.000Z,97871
2022-09-16T14:53:08.000Z,97870
2022-09-16T14:54:34.000Z,97870
2022-09-16T14:56:40.000Z,97868
2022-09-16T14:58:07.000Z,97867
2022-09-16T15:00:13.000Z,97870
2022-09-16T15:03:04.000Z,97865
2022-09-16T15:04:31.000Z,97864
2022-09-16T15:06:37.000Z,97865
2022-09-16T15:08:04.000Z,97857
2022-09-16T15:10:20.000Z,97853
2022-09-16T15:11:46.000Z,97863
2022-09-16T15:13:54.000Z,97853
2022-09-16T15:15:21.000Z,97855
2022-09-16T15:17:27.000Z,97856
2022-09-16T15:18:54.000Z,97852
2022-09-16T15:21:00.000Z,97855
2022-09-16T15:22:26.000Z,97858
2022-09-16T15:24:32.000Z,97860
2022-09-16T15:25:59.000Z,97863
2022-09-16T15:28:05.000Z,97874
2022-09-16T15:29:32.000Z,97878
2022-09-16T15:31:38.000Z,97875
2022-09-16T15:33:04.000Z,97879
2022-09-16T15:35:10.000Z,97877
2022-09-16T15:36:37.000Z,97879
2022-09-16T15:38:43.000Z,97879
2022-09-16T15:41:36.000Z,97876
2022-09-16T15:43:02.000Z,97877
2022-09-16T15:45:08.000Z,97868
2022-09-16T15:46:35.000Z,97869
2022-09-16T15:48:41.000Z,97872
2022-09-16T15:50:07.000Z,97874
2022-09-16T15:52:14.000Z,97883
2022-09-16T15:53:40.000Z,97883
2022-09-16T15:55:46.000Z,97879
2022-09-16T15:57:13.000Z,97875
2022-09-16T15:59:19.000Z,97880
2022-09-16T16:00:45.000Z,97878
2022-09-16T16:02:51.000Z,97880
2022-09-16T16:04:18.000Z,97881
2022-09-16T16:06:24.000Z,97882
2022-09-16T16:07:51.000Z,97885
2022-09-16T16:09:57.000Z,97880
2022-09-16T16:11:24.000Z,97879
2022-09-16T16:13:30.000Z,97878
2022-09-16T16:14:56.000Z,97882
2022-09-16T16:17:02.000Z,97880
2022-09-16T16:20:04.000Z,97885
2022-09-16T16:21:31.000Z,97882
2022-09-16T16:23:37.000Z,97885
2022-09-16T16:25:03.000Z,97883
2022-09-16T16:27:09.000Z,97879
2022-09-16T16:28:36.000Z,97876
2022-09-16T16:30:42.000Z,97880
2022-09-16T16:32:09.000Z,97877
2022-09-16T16:34:15.000Z,97882
2022-09-16T16:35:41.000Z,97881
2022-09-16T16:37:47.000Z,97881
2022-09-16T16:39:14.000Z,97878
2022-09-16T16:41:20.000Z,97879
2022-09-16T16:42:46.000Z,97875
2022-09-16T16:44:53.000Z,97876
2022-09-16T16:46:19.000Z,97875
2022-09-16T16:48:25.000Z,97873
2022-09-16T16:49:52.000Z,97876
2022-09-16T16:51:58.000Z,97872
2022-09-16T16:53:24.000Z,97871
2022-09-16T16:55:31.000Z,97871
2022-09-16T16:58:22.000Z,97872
2022-09-16T16:59:48.000Z,97874
2022-09-16T17:01:54.000Z,97874
2022-09-16T17:03:21.000Z,97874
2022-09-16T17:05:27.000Z,97871
2022-09-16T17:06:54.000Z,97874
2022-09-16T17:09:30.000Z,97879
2022-09-16T17:10:57.000Z,97881
2022-09-16T17:13:03.000Z,97880
2022-09-16T17:14:30.000Z,97885
2022-09-16T17:16:36.000Z,97887
2022-09-16T17:18:02.000Z,97893
2022-09-16T17:20:08.000Z,97891
2022-09-16T17:21:35.000Z,97892
2022-09-16T17:23:41.000Z,97895
2022-09-16T17:25:08.000Z,97897
2022-09-16T17:27:14.000Z,97894
2022-09-16T17:28:40.000Z,97891
2022-09-16T17:30:46.000Z,97898
2022-09-16T17:32:13.000Z,97899
2022-09-16T17:34:19.000Z,97902
2022-09-16T17:37:11.000Z,97903
2022-09-16T17:38:37.000Z,97897
2022-09-16T17:40:43.000Z,97904
2022-09-16T17:42:10.000Z,97902
2022-09-16T17:44:16.000Z,97902
2022-09-16T17:45:42.000Z,97905
2022-09-16T17:47:48.000Z,97903
2022-09-16T17:49:15.000Z,97901
2022-09-16T17:51:21.000Z,97905
2022-09-16T17:52:47.000Z,97900
2022-09-16T17:54:54.000Z,97903
2022-09-16T17:56:20.000Z,97909
2022-09-16T17:58:26.000Z,97913
2022-09-16T17:59:53.000Z,97914
2022-09-16T18:03:58.000Z,97913
2022-09-16T18:06:04.000Z,97910
2022-09-16T18:07:31.000Z,97912
2022-09-16T18:09:37.000Z,97906
2022-09-16T18:11:04.000Z,97904
2022-09-16T18:13:10.000Z,97902
2022-09-16T18:16:01.000Z,97904
2022-09-16T18:17:27.000Z,97906
2022-09-16T18:19:33.000Z,97904
2022-09-16T18:21:00.000Z,97906
2022-09-16T18:23:06.000Z,97903
2022-09-16T18:24:32.000Z,97909
2022-09-16T18:26:39.000Z,97912
2022-09-16T18:28:05.000Z,97913
2022-09-16T18:30:11.000Z,97914
2022-09-16T18:31:38.000Z,97919
2022-09-16T18:33:44.000Z,97926
2022-09-16T18:35:10.000Z,97927
2022-09-16T18:37:16.000Z,97935
2022-09-16T18:38:43.000Z,97938
2022-09-16T18:40:49.000Z,97946
2022-09-16T18:42:15.000Z,97949
2022-09-16T18:44:22.000Z,97951
2022-09-16T18:45:48.000Z,97950
2022-09-16T18:47:54.000Z,97951
2022-09-16T18:49:21.000Z,97954
2022-09-16T18:51:27.000Z,97964
2022-09-16T18:54:18.000Z,97961
2022-09-16T18:55:44.000Z,97961
2022-09-16T18:57:50.000Z,97962
2022-09-16T18:59:17.000Z,97957
2022-09-16T19:01:28.000Z,97963
2022-09-16T19:02:55.000Z,97963
2022-09-16T19:05:01.000Z,97962
2022-09-16T19:06:27.000Z,97965
2022-09-16T19:08:33.000Z,97962
2022-09-16T19:10:00.000Z,97967
2022-09-16T19:12:06.000Z,97960
2022-09-16T19:13:32.000Z,97963
2022-09-16T19:15:39.000Z,97964
2022-09-16T19:17:05.000Z,97962
2022-09-16T19:19:11.000Z,97961
2022-09-16T19:20:38.000Z,97966
2022-09-16T19:22:44.000Z,97969
2022-09-16T19:24:10.000Z,97962
2022-09-16T19:26:16.000Z,97966
2022-09-16T19:27:43.000Z,97968
2022-09-16T19:29:49.000Z,97967
2022-09-16T19:32:40.000Z,97962
2022-09-16T19:34:07.000Z,97961
2022-09-16T19:36:13.000Z,97959
2022-09-16T19:37:39.000Z,97958
2022-09-16T19:39:45.000Z,97957
2022-09-16T19:41:12.000Z,97955
2022-09-16T19:43:18.000Z,97952
2022-09-16T19:44:44.000Z,97951
2022-09-16T19:46:51.000Z,97946
2022-09-16T19:48:17.000Z,97948
2022-09-16T19:50:23.000Z,97945
2022-09-16T19:51:50.000Z,97945
2022-09-16T19:53:56.000Z,97946
2022-09-16T19:55:22.000Z,97941
2022-09-16T19:57:28.000Z,97944
2022-09-16T19:58:55.000Z,97946
2022-09-16T20:01:01.000Z,97943
2022-09-16T20:02:28.000Z,97951
2022-09-16T20:04:34.000Z,97949
2022-09-16T20:06:00.000Z,97944
2022-09-16T20:08:06.000Z,97951
2022-09-16T20:10:58.000Z,97952
2022-09-16T20:12:24.000Z,97949
2022-09-16T20:14:30.000Z,97952
2022-09-16T20:15:57.000Z,97953
2022-09-16T20:18:03.000Z,97954
2022-09-16T20:19:29.000Z,97959
2022-09-16T20:21:35.000Z,97959
2022-09-16T20:23:02.000Z,97959
2022-09-16T20:25:08.000Z,97960
2022-09-16T20:26:49.000Z,97956
2022-09-16T20:28:55.000Z,97954
2022-09-16T20:30:22.000Z,97950
2022-09-16T20:32:28.000Z,97953
2022-09-16T20:33:54.000Z,97959
2022-09-16T20:36:00.000Z,97963
2022-09-16T20:37:27.000Z,97962
2022-09-16T20:39:33.000Z,97975
2022-09-16T20:41:00.000Z,97972
2022-09-16T20:43:06.000Z,97966
2022-09-16T20:44:32.000Z,97965
2022-09-16T20:46:38.000Z,97969
2022-09-16T20:49:30.000Z,97973
2022-09-16T20:50:56.000Z,97969
2022-09-16T20:53:02.000Z,97969
2022-09-16T20:54:29.000Z,97965
2022-09-16T20:56:35.000Z,97969
2022-09-16T20:58:05.000Z,97969
2022-09-16T21:00:11.000Z,97968
2022-09-16T21:01:37.000Z,97970
2022-09-16T21:03:43.000Z,97973
2022-09-16T21:05:10.000Z,97974
2022-09-16T21:07:16.000Z,97970
2022-09-16T21:08:43.000Z,97968
2022-09-16T21:10:49.000Z,97974
2022-09-16T21:12:15.000Z,97972
2022-09-16T21:14:21.000Z,97973
2022-09-16T21:15:48.000Z,97980
2022-09-16T21:17:54.000Z,97979
2022-09-16T21:19:21.000Z,97973
2022-09-16T21:21:27.000Z,97972
2022-09-16T21:22:53.000Z,97973
2022-09-16T21:24:59.000Z,97973
2022-09-16T21:27:50.000Z,97980
2022-09-16T21:29:17.000Z,97977
2022-09-16T21:31:23.000Z,97974
2022-09-16T21:32:50.000Z,97984
2022-09-16T21:34:56.000Z,97986
2022-09-16T21:36:22.000Z,97981
2022-09-16T21:38:28.000Z,97982
2022-09-16T21:39:55.000Z,97984
2022-09-16T21:42:01.000Z,97982
2022-09-16T21:43:28.000Z,97975
2022-09-16T21:45:34.000Z,97972
2022-09-16T21:47:00.000Z,97977
2022-09-16T21:49:06.000Z,97974
2022-09-16T21:50:33.000Z,97974
2022-09-16T21:52:39.000Z,97973
2022-09-16T21:54:06.000Z,97973
2022-09-16T21:56:12.000Z,97975
2022-09-16T21:57:38.000Z,97974
2022-09-16T21:59:44.000Z,97973
2022-09-16T22:01:11.000Z,97976
2022-09-16T22:03:17.000Z,97975
2022-09-16T22:06:08.000Z,97984
2022-09-16T22:07:35.000Z,97978
2022-09-16T22:09:41.000Z,97981
2022-09-16T22:11:08.000Z,97980
2022-09-16T22:13:14.000Z,97980
2022-09-16T22:14:40.000Z,97984
2022-09-16T22:16:46.000Z,97982
2022-09-16T22:18:13.000Z,97986
2022-09-16T22:20:19.000Z,97983
2022-09-16T22:21:45.000Z,97980
2022-09-16T22:23:51.000Z,97979
2022-09-16T22:25:18.000Z,97980
2022-09-16T22:27:24.000Z,97982
2022-09-16T22:28:50.000Z,97983
2022-09-16T22:30:56.000Z,97983
2022-09-16T22:32:23.000Z,97980
2022-09-16T22:34:29.000Z,97980
2022-09-16T22:35:56.000Z,97973
2022-09-16T22:38:02.000Z,97974
2022-09-16T22:39:28.000Z,97974
2022-09-16T22:41:34.000Z,97979
2022-09-16T22:44:26.000Z,97972
2022-09-16T22:45:52.000Z,97972
2022-09-16T22:47:58.000Z,97976
2022-09-16T22:49:25.000Z,97971
2022-09-16T22:51:31.000Z,97967
2022-09-16T22:52:57.000Z,97966
2022-09-16T22:55:03.000Z,97960
2022-09-16T22:56:30.000Z,97960
2022-09-16T22:58:36.000Z,97956
2022-09-16T23:00:02.000Z,97954
2022-09-16T23:02:09.000Z,97957
2022-09-16T23:03:35.000Z,97959
2022-09-16T23:05:42.000Z,97956
2022-09-16T23:07:08.000Z,97953
2022-09-16T23:09:14.000Z,97952
2022-09-16T23:10:41.000Z,97951
2022-09-16T23:12:47.000Z,97952
2022-09-16T23:14:13.000Z,97950
2022-09-16T23:16:20.000Z,97952
2022-09-16T23:17:46.000Z,97949
2022-09-16T23:19:52.000Z,97949
2022-09-16T23:22:43.000Z,97949
2022-09-16T23:24:10.000Z,97949
2022-09-16T23:26:16.000Z,97947
2022-09-16T23:27:42.000Z,97948
2022-09-16T23:29:48.000Z,97943
2022-09-16T23:31:15.000Z,97944
2022-09-16T23:33:21.000Z,97944
2022-09-16T23:34:48.000Z,97946
2022-09-16T23:36:54.000Z,97944